Cantonment, Florida
Current Conditions -  °F | °C
As of 3:53 PM on Monday 24 Nov 2014 (Local Time) from KPNS Reporting Station
Broken Clouds Broken Clouds  
Wind Chill: 71°   Ceiling: 10000
Heat Index: 71°   Visibility: 10mi
Dew Point: 64°   Wind: 6mph
Humidity: 78%   Direction: 190°S
Pressure: 29.85"   Gusts: NA
Location:  30.61°N, 87.34°W
Report Text: KPNS 242153Z 19005KT 10SM BKN100 22/18 A2985 RMK AO2 SLP108 T02170178
Loading
Personal Weather Stations






























Interactive Weather Map New forecast layout! Learn more

10-Day Weather Forecast

Advertisements
Track Severe Weather on mobile